Time;durP1;ratioP1;P1;durP2;ratioP2;P2;SDS_P1;SDS_P2;PMS_P1;PMS_P2;Temp;Humidity;BMP_temperature;BMP_pressure;BME280_temperature;BME280_humidity;BME280_pressure;Samples;Min_cycle;Max_cycle;Signal;HPM_P1;HPM_P2
2023/06/03 00:02:14;;;;;;;13.47;5.20;;;12.20;99.90;;;;;;5075766;28;20250;-74
2023/06/03 00:04:42;;;;;;;7.27;4.40;;;12.20;99.90;;;;;;5075519;28;20232;-74
2023/06/03 00:07:09;;;;;;;15.07;5.20;;;12.20;99.90;;;;;;5075542;28;20250;-73
2023/06/03 00:09:35;;;;;;;11.20;4.73;;;12.10;99.90;;;;;;5075512;28;20197;-73
2023/06/03 00:12:02;;;;;;;10.87;4.73;;;12.10;99.90;;;;;;5075585;28;20235;-73
2023/06/03 00:14:29;;;;;;;8.90;4.60;;;12.10;99.90;;;;;;5075250;28;20226;-74
2023/06/03 00:16:56;;;;;;;9.87;5.13;;;12.00;99.90;;;;;;5075234;28;20656;-73
2023/06/03 00:19:22;;;;;;;11.73;5.20;;;12.00;99.90;;;;;;5075229;28;20728;-73
2023/06/03 00:21:50;;;;;;;9.43;4.57;;;12.00;99.90;;;;;;5075428;28;20197;-73
2023/06/03 00:24:19;;;;;;;9.27;4.60;;;12.00;99.90;;;;;;5075234;28;20220;-73
2023/06/03 00:26:46;;;;;;;9.00;4.47;;;12.00;99.90;;;;;;5074755;28;20207;-74
2023/06/03 00:29:13;;;;;;;6.03;4.20;;;12.00;99.90;;;;;;5075158;28;20197;-74
2023/06/03 00:31:39;;;;;;;12.37;5.10;;;11.90;99.90;;;;;;5074991;28;20731;-74
2023/06/03 00:34:06;;;;;;;7.90;4.53;;;11.80;99.90;;;;;;5075349;28;20243;-73
2023/06/03 00:36:32;;;;;;;12.03;5.07;;;11.80;99.90;;;;;;5075091;28;20205;-75
2023/06/03 00:39:00;;;;;;;10.27;5.17;;;11.80;99.90;;;;;;5075007;28;20197;-76
2023/06/03 00:41:27;;;;;;;9.90;5.13;;;11.80;99.90;;;;;;5074816;28;20250;-75
2023/06/03 00:43:54;;;;;;;7.93;4.53;;;11.80;99.90;;;;;;5077134;28;20221;-75
2023/06/03 00:46:21;;;;;;;11.33;4.77;;;11.80;99.90;;;;;;5078157;28;20208;-75
2023/06/03 00:48:50;;;;;;;10.20;5.47;;;11.70;99.90;;;;;;5076359;28;20541;-73
2023/06/03 00:51:17;;;;;;;9.73;4.33;;;11.60;99.90;;;;;;5078132;28;20194;-73
2023/06/03 00:53:44;;;;;;;8.60;4.87;;;11.60;99.90;;;;;;5076817;28;20233;-74
2023/06/03 00:56:12;;;;;;;9.30;4.63;;;11.60;99.90;;;;;;5075126;28;20201;-73
2023/06/03 00:58:39;;;;;;;9.50;5.20;;;11.60;99.90;;;;;;5074923;28;20201;-73
2023/06/03 01:01:05;;;;;;;9.13;5.30;;;11.60;99.90;;;;;;5074628;28;20247;-73
2023/06/03 01:03:32;;;;;;;8.80;4.97;;;11.60;99.90;;;;;;5074599;28;20254;-73
2023/06/03 01:06:14;;;;;;;10.90;5.07;;;11.60;99.90;;;;;;5074395;28;20251;-73
2023/06/03 01:08:51;;;;;;;9.47;5.13;;;11.50;99.90;;;;;;5074277;28;20216;-73
2023/06/03 01:11:25;;;;;;;8.83;5.40;;;11.50;99.90;;;;;;5074570;28;20288;-73
2023/06/03 01:13:56;;;;;;;10.07;5.80;;;11.60;99.90;;;;;;5074100;28;20849;-74
2023/06/03 01:16:24;;;;;;;7.60;5.10;;;11.60;99.90;;;;;;5074175;28;20595;-74
2023/06/03 01:18:53;;;;;;;8.73;4.97;;;11.60;99.90;;;;;;5073966;28;20193;-73
2023/06/03 01:21:24;;;;;;;10.03;5.77;;;11.50;99.90;;;;;;5073926;28;20258;-74
2023/06/03 01:23:52;;;;;;;9.43;5.17;;;11.50;99.90;;;;;;5073621;28;20680;-74
2023/06/03 01:26:19;;;;;;;9.87;5.53;;;11.50;99.90;;;;;;5074093;28;20255;-74
2023/06/03 01:28:49;;;;;;;10.83;5.60;;;11.50;99.90;;;;;;5074065;28;20300;-74
2023/06/03 01:31:17;;;;;;;15.27;6.87;;;11.50;99.90;;;;;;5073848;28;20293;-74
2023/06/03 01:33:45;;;;;;;12.30;6.10;;;11.40;99.90;;;;;;5073978;28;20266;-74
2023/06/03 01:36:11;;;;;;;10.87;6.23;;;11.40;99.90;;;;;;5073906;28;20197;-74
2023/06/03 01:38:38;;;;;;;10.40;6.83;;;11.40;99.90;;;;;;5072833;28;20656;-74
2023/06/03 01:41:07;;;;;;;15.23;6.40;;;11.40;99.90;;;;;;5073520;28;20599;-74
2023/06/03 01:43:35;;;;;;;10.53;5.63;;;11.40;99.90;;;;;;5073428;28;20200;-74
2023/06/03 01:46:02;;;;;;;15.33;7.00;;;11.30;99.90;;;;;;5073276;28;20272;-74
2023/06/03 01:48:29;;;;;;;11.50;5.80;;;11.40;99.90;;;;;;5073801;28;20254;-74
2023/06/03 01:50:56;;;;;;;11.47;6.50;;;11.30;99.90;;;;;;5073259;28;20603;-75
2023/06/03 01:53:23;;;;;;;7.23;5.53;;;11.40;99.90;;;;;;5073304;28;20612;-74
2023/06/03 01:55:50;;;;;;;11.70;5.63;;;11.40;99.90;;;;;;5073431;28;20751;-74
2023/06/03 01:58:18;;;;;;;11.20;6.03;;;11.20;99.90;;;;;;5073351;28;20196;-74
2023/06/03 02:00:45;;;;;;;12.67;6.17;;;11.30;99.90;;;;;;5073355;28;20197;-74
2023/06/03 02:03:11;;;;;;;11.17;5.97;;;11.30;99.90;;;;;;5073452;28;20197;-74
2023/06/03 02:05:38;;;;;;;9.13;5.83;;;11.30;99.90;;;;;;5073297;28;20286;-74
2023/06/03 02:08:07;;;;;;;10.23;5.63;;;11.30;99.90;;;;;;5073264;28;20227;-74
2023/06/03 02:10:34;;;;;;;11.03;5.83;;;11.10;99.90;;;;;;5073248;28;20197;-74
2023/06/03 02:13:00;;;;;;;14.50;5.90;;;11.20;99.90;;;;;;5073017;28;20197;-75
2023/06/03 02:15:28;;;;;;;12.33;6.70;;;11.20;99.90;;;;;;5072917;28;20197;-74
2023/06/03 02:17:55;;;;;;;13.00;6.57;;;11.20;99.90;;;;;;5073189;28;20246;-74
2023/06/03 02:20:22;;;;;;;14.30;7.20;;;11.20;99.90;;;;;;5073164;28;20197;-74
2023/06/03 02:22:49;;;;;;;8.10;5.47;;;11.10;99.90;;;;;;5072857;28;20671;-74
2023/06/03 02:25:15;;;;;;;12.70;6.00;;;11.10;99.90;;;;;;5072975;28;20258;-74
2023/06/03 02:27:43;;;;;;;10.83;6.10;;;11.10;99.90;;;;;;5072832;28;20204;-74
2023/06/03 02:30:10;;;;;;;9.00;5.57;;;11.10;99.90;;;;;;5073052;28;20203;-74
2023/06/03 02:32:38;;;;;;;8.97;5.33;;;11.10;99.90;;;;;;5073034;28;20224;-74
2023/06/03 02:35:06;;;;;;;10.80;5.43;;;11.10;99.90;;;;;;5072970;28;20251;-74
2023/06/03 02:37:32;;;;;;;9.53;5.97;;;11.10;99.90;;;;;;5072711;28;20197;-74
2023/06/03 02:39:59;;;;;;;12.13;5.83;;;11.00;99.90;;;;;;5072832;28;20652;-74
2023/06/03 02:42:26;;;;;;;8.80;5.43;;;11.00;99.90;;;;;;5072744;28;20200;-75
2023/06/03 02:44:52;;;;;;;10.40;5.97;;;10.90;99.90;;;;;;5072965;28;20334;-74
2023/06/03 02:47:19;;;;;;;11.63;5.60;;;10.90;99.90;;;;;;5072617;28;20197;-74
2023/06/03 02:49:47;;;;;;;7.37;5.37;;;10.80;99.90;;;;;;5072556;28;20607;-75
2023/06/03 02:52:13;;;;;;;12.03;5.87;;;10.90;99.90;;;;;;5072775;28;20246;-74
2023/06/03 02:54:40;;;;;;;8.93;6.23;;;10.90;99.90;;;;;;5072801;28;20229;-74
2023/06/03 02:57:08;;;;;;;11.27;6.70;;;10.90;99.90;;;;;;5072788;28;20204;-74
2023/06/03 02:59:34;;;;;;;10.63;6.27;;;10.80;99.90;;;;;;5072958;28;20200;-74
2023/06/03 03:02:01;;;;;;;15.10;7.27;;;10.80;99.90;;;;;;5072941;28;20215;-74
2023/06/03 03:04:33;;;;;;;10.63;5.97;;;10.70;99.90;;;;;;5072602;28;20221;-75
2023/06/03 03:07:02;;;;;;;10.53;6.40;;;10.70;99.90;;;;;;5072711;28;20623;-73
2023/06/03 03:09:28;;;;;;;12.17;6.10;;;10.70;99.90;;;;;;5072518;28;20201;-74
2023/06/03 03:11:55;;;;;;;9.37;5.83;;;10.70;99.90;;;;;;5072573;28;20718;-74
2023/06/03 03:14:21;;;;;;;10.00;6.10;;;10.70;99.90;;;;;;5072626;28;20201;-74
2023/06/03 03:16:48;;;;;;;10.43;6.27;;;10.70;99.90;;;;;;5072627;28;20205;-74
2023/06/03 03:19:15;;;;;;;7.63;5.47;;;10.70;99.90;;;;;;5072488;28;20196;-74
2023/06/03 03:21:41;;;;;;;10.77;6.57;;;10.70;99.90;;;;;;5072300;28;20242;-74
2023/06/03 03:24:10;;;;;;;13.13;6.30;;;10.80;99.90;;;;;;5072436;28;20246;-74
2023/06/03 03:26:37;;;;;;;9.50;5.77;;;10.70;99.90;;;;;;5072495;28;20330;-75
2023/06/03 03:29:03;;;;;;;6.97;5.57;;;10.70;99.90;;;;;;5072295;28;20598;-74
2023/06/03 03:31:30;;;;;;;12.97;5.67;;;10.70;99.90;;;;;;5072483;28;20228;-74
2023/06/03 03:33:57;;;;;;;12.10;6.60;;;10.80;99.90;;;;;;5072229;28;20232;-74
2023/06/03 03:36:24;;;;;;;8.83;5.90;;;10.70;99.90;;;;;;5072251;28;20201;-74
2023/06/03 03:38:54;;;;;;;10.50;6.23;;;10.80;99.90;;;;;;5072412;28;20262;-74
2023/06/03 03:41:22;;;;;;;10.77;6.37;;;10.80;99.90;;;;;;5072467;28;20205;-74
2023/06/03 03:43:51;;;;;;;9.03;5.73;;;10.70;99.90;;;;;;5072158;28;20190;-74
2023/06/03 03:46:17;;;;;;;7.90;5.30;;;10.80;99.90;;;;;;5072122;28;20225;-74
2023/06/03 03:48:44;;;;;;;8.50;5.73;;;10.80;99.90;;;;;;5072228;28;20217;-75
2023/06/03 03:51:13;;;;;;;14.97;5.80;;;10.90;99.90;;;;;;5071900;28;20232;-75
2023/06/03 03:53:43;;;;;;;8.57;5.53;;;10.90;99.90;;;;;;5071936;28;20225;-74
2023/06/03 03:56:12;;;;;;;8.73;5.27;;;11.00;99.90;;;;;;5072189;28;20812;-74
2023/06/03 03:58:41;;;;;;;9.40;5.20;;;11.00;99.90;;;;;;5072051;28;20283;-74
2023/06/03 04:01:12;;;;;;;11.77;5.90;;;11.10;99.90;;;;;;5072349;28;20561;-74
2023/06/03 04:03:41;;;;;;;10.23;5.33;;;11.10;99.90;;;;;;5075600;28;20221;-75
2023/06/03 04:06:08;;;;;;;7.10;5.27;;;11.20;99.90;;;;;;5075597;28;20228;-74
2023/06/03 04:08:43;;;;;;;8.27;5.70;;;11.30;99.90;;;;;;5075741;28;20239;-74
2023/06/03 04:11:18;;;;;;;8.23;5.63;;;11.40;99.90;;;;;;5075852;28;20200;-74
2023/06/03 04:13:47;;;;;;;8.97;5.50;;;11.60;99.90;;;;;;5075509;28;20204;-75
2023/06/03 04:16:34;;;;;;;6.87;5.23;;;11.80;99.90;;;;;;5075321;28;20204;-74
2023/06/03 04:19:03;;;;;;;10.33;5.37;;;11.90;99.90;;;;;;5084992;28;20530;-74
2023/06/03 04:21:30;;;;;;;6.97;5.20;;;12.10;99.90;;;;;;5075682;28;20326;-74
2023/06/03 04:23:56;;;;;;;8.13;5.00;;;12.20;99.90;;;;;;5075381;28;20224;-75
2023/06/03 04:26:23;;;;;;;8.93;5.00;;;12.40;99.90;;;;;;5075362;28;20623;-75
2023/06/03 04:28:51;;;;;;;7.47;5.23;;;12.50;99.90;;;;;;5075231;28;20242;-75
2023/06/03 04:31:18;;;;;;;8.00;4.97;;;12.50;99.90;;;;;;5075234;28;20287;-75
2023/06/03 04:33:45;;;;;;;9.37;5.57;;;12.60;99.90;;;;;;5074962;28;20726;-74
2023/06/03 04:36:11;;;;;;;8.57;6.23;;;12.70;99.90;;;;;;5075128;28;20201;-75
2023/06/03 04:38:38;;;;;;;14.37;5.33;;;12.80;99.90;;;;;;5075124;28;20201;-75
2023/06/03 04:41:05;;;;;;;9.37;5.57;;;12.90;99.90;;;;;;5074849;28;20215;-75
2023/06/03 04:43:33;;;;;;;7.90;5.50;;;12.90;99.90;;;;;;5075314;28;20247;-75
2023/06/03 04:46:01;;;;;;;6.77;5.00;;;13.00;99.90;;;;;;5075104;28;20229;-75
2023/06/03 04:48:30;;;;;;;8.30;5.30;;;13.00;99.90;;;;;;5074575;28;20193;-75
2023/06/03 04:50:56;;;;;;;7.77;6.00;;;13.00;99.90;;;;;;5074930;28;20548;-74
2023/06/03 04:53:25;;;;;;;9.07;5.90;;;13.00;99.90;;;;;;5074607;28;20228;-75
2023/06/03 04:55:52;;;;;;;9.57;5.10;;;13.00;99.90;;;;;;5074954;28;20238;-74
2023/06/03 04:58:19;;;;;;;8.33;5.63;;;13.00;99.90;;;;;;5074697;28;20288;-73
2023/06/03 05:00:48;;;;;;;7.20;5.13;;;13.00;99.90;;;;;;5074659;28;20193;-74
2023/06/03 05:03:17;;;;;;;6.57;5.00;;;13.00;99.90;;;;;;5074507;28;20226;-74
2023/06/03 05:05:44;;;;;;;5.90;4.90;;;13.10;99.90;;;;;;5074241;28;20749;-75
2023/06/03 05:08:11;;;;;;;7.07;5.20;;;13.20;99.90;;;;;;5074100;28;20256;-74
2023/06/03 05:10:38;;;;;;;6.70;5.33;;;13.30;99.90;;;;;;5074384;28;20270;-74
2023/06/03 05:13:05;;;;;;;6.40;5.03;;;13.40;99.90;;;;;;5073208;28;20254;-74
2023/06/03 05:15:33;;;;;;;8.67;5.40;;;13.50;99.90;;;;;;5074231;28;20291;-74
2023/06/03 05:18:00;;;;;;;8.50;5.40;;;13.80;99.90;;;;;;5074107;28;20655;-75
2023/06/03 05:20:28;;;;;;;7.40;5.17;;;13.90;99.90;;;;;;5074124;28;20201;-76
2023/06/03 05:22:55;;;;;;;7.17;5.30;;;14.00;99.90;;;;;;5073669;28;20594;-74
2023/06/03 05:25:22;;;;;;;9.57;5.17;;;14.10;99.90;;;;;;5074299;28;20221;-75
2023/06/03 05:27:49;;;;;;;6.30;5.23;;;14.20;99.90;;;;;;5074145;28;20656;-75
2023/06/03 05:30:16;;;;;;;8.87;5.70;;;14.40;99.90;;;;;;5074093;28;20204;-75
2023/06/03 05:32:42;;;;;;;6.80;5.17;;;14.40;99.90;;;;;;5073867;28;20644;-75
2023/06/03 05:35:09;;;;;;;9.63;5.27;;;14.40;99.90;;;;;;5073671;28;20208;-75
2023/06/03 05:37:37;;;;;;;9.73;5.40;;;14.10;99.90;;;;;;5073722;28;20667;-75
2023/06/03 05:40:05;;;;;;;7.57;5.20;;;14.10;99.90;;;;;;5073898;28;20201;-75
2023/06/03 05:42:33;;;;;;;9.07;5.17;;;14.10;99.90;;;;;;5073836;28;20595;-74
2023/06/03 05:44:59;;;;;;;9.23;5.20;;;14.10;99.90;;;;;;5073587;28;20200;-75
2023/06/03 05:47:26;;;;;;;8.67;5.43;;;14.10;99.90;;;;;;5073512;28;20275;-75
2023/06/03 05:49:52;;;;;;;8.73;5.80;;;14.10;99.90;;;;;;5073790;28;20197;-75
2023/06/03 05:52:19;;;;;;;11.23;6.33;;;14.00;99.90;;;;;;5073667;28;20254;-74
2023/06/03 05:54:47;;;;;;;6.77;6.07;;;14.10;99.90;;;;;;5073575;28;20229;-75
2023/06/03 05:57:14;;;;;;;10.80;6.30;;;14.10;99.90;;;;;;5073566;28;20259;-75
2023/06/03 05:59:40;;;;;;;6.93;6.13;;;14.10;99.90;;;;;;5073526;28;20258;-75
2023/06/03 06:02:07;;;;;;;8.40;6.57;;;14.20;99.90;;;;;;5073353;28;20227;-75
2023/06/03 06:04:33;;;;;;;10.23;6.37;;;14.20;99.90;;;;;;5073324;28;20254;-75
2023/06/03 06:07:00;;;;;;;7.23;6.17;;;14.20;99.90;;;;;;5073340;28;20220;-75
2023/06/03 06:09:27;;;;;;;7.73;6.23;;;14.20;99.90;;;;;;5073070;28;20201;-75
2023/06/03 06:11:55;;;;;;;7.83;5.97;;;14.30;99.90;;;;;;5073360;28;20193;-75
2023/06/03 06:14:22;;;;;;;6.60;5.90;;;14.40;99.90;;;;;;5073195;28;20243;-75
2023/06/03 06:16:48;;;;;;;7.57;5.53;;;14.40;99.90;;;;;;5073032;28;20197;-75
2023/06/03 06:19:15;;;;;;;10.00;5.77;;;14.50;99.90;;;;;;5073593;28;20201;-75
2023/06/03 06:21:41;;;;;;;6.90;6.13;;;14.60;99.90;;;;;;5073197;28;20193;-76
2023/06/03 06:24:08;;;;;;;7.70;6.03;;;14.80;99.90;;;;;;5072829;28;20266;-76
2023/06/03 06:26:35;;;;;;;8.33;5.60;;;14.90;99.90;;;;;;5072892;28;20225;-76
2023/06/03 06:29:03;;;;;;;6.23;5.37;;;15.00;99.90;;;;;;5073051;28;20197;-75
2023/06/03 06:31:30;;;;;;;10.30;6.28;;;15.10;99.90;;;;;;5072804;28;20252;-74
2023/06/03 06:33:56;;;;;;;10.10;6.38;;;15.10;99.90;;;;;;5073132;28;20254;-76
2023/06/03 06:36:30;;;;;;;7.43;5.65;;;15.20;99.90;;;;;;5072943;28;20204;-76
2023/06/03 06:38:58;;;;;;;6.60;5.70;;;15.30;99.90;;;;;;5072802;28;20193;-76
2023/06/03 06:41:26;;;;;;;5.95;5.32;;;15.30;99.90;;;;;;5072856;28;20318;-75
2023/06/03 06:43:54;;;;;;;9.63;6.32;;;15.50;99.90;;;;;;5072869;28;20653;-76
2023/06/03 06:46:24;;;;;;;9.40;6.28;;;15.50;99.90;;;;;;5072916;28;20221;-76
2023/06/03 06:48:51;;;;;;;10.30;6.10;;;15.60;99.90;;;;;;5072782;28;20193;-76
2023/06/03 06:51:19;;;;;;;9.48;6.68;;;15.60;99.90;;;;;;5072847;28;20196;-75
2023/06/03 06:53:48;;;;;;;9.48;6.40;;;15.70;99.90;;;;;;5072620;28;20231;-76
2023/06/03 06:56:18;;;;;;;7.10;6.00;;;15.80;99.90;;;;;;5072700;28;20197;-75
2023/06/03 06:58:44;;;;;;;9.88;6.25;;;15.80;99.90;;;;;;5072603;28;20197;-75
2023/06/03 07:01:11;;;;;;;11.48;6.40;;;16.00;99.90;;;;;;5072762;28;20197;-76
2023/06/03 07:03:39;;;;;;;10.27;6.57;;;16.10;99.90;;;;;;5072823;28;20231;-75
2023/06/03 07:06:05;;;;;;;11.63;6.85;;;16.10;99.90;;;;;;5072618;28;20271;-75
2023/06/03 07:08:32;;;;;;;12.02;6.50;;;16.10;99.90;;;;;;5072566;28;20660;-76
2023/06/03 07:11:01;;;;;;;6.63;5.85;;;16.10;99.90;;;;;;5072729;28;20193;-75
2023/06/03 07:13:28;;;;;;;8.35;6.07;;;16.20;99.90;;;;;;5072649;28;20201;-75
2023/06/03 07:15:55;;;;;;;6.93;5.70;;;16.30;99.90;;;;;;5072779;28;20204;-75
2023/06/03 07:18:22;;;;;;;7.70;6.00;;;16.40;99.90;;;;;;5072613;28;20197;-75
2023/06/03 07:20:51;;;;;;;12.93;6.10;;;16.50;99.90;;;;;;5072452;28;20561;-75
2023/06/03 07:23:21;;;;;;;8.98;5.78;;;16.50;99.90;;;;;;5072321;28;20193;-75
2023/06/03 07:25:49;;;;;;;7.75;5.90;;;16.50;99.90;;;;;;5072397;28;20217;-76
2023/06/03 07:28:20;;;;;;;9.45;5.78;;;16.60;99.90;;;;;;5072494;28;20201;-75
2023/06/03 07:30:49;;;;;;;6.97;5.53;;;16.60;99.90;;;;;;5072488;28;20580;-76
2023/06/03 07:33:25;;;;;;;6.43;4.82;;;16.70;99.90;;;;;;5072351;28;20270;-76
2023/06/03 07:35:54;;;;;;;7.70;5.88;;;16.80;99.90;;;;;;5072462;28;20306;-76
2023/06/03 07:38:56;;;;;;;8.18;5.70;;;16.90;99.90;;;;;;5075825;28;20622;-76
2023/06/03 07:41:35;;;;;;;9.30;6.15;;;17.00;99.90;;;;;;5076145;28;20208;-76
2023/06/03 07:44:04;;;;;;;7.85;5.80;;;17.30;99.90;;;;;;5075984;28;20604;-75
2023/06/03 07:46:37;;;;;;;8.38;5.88;;;17.50;99.90;;;;;;5075752;28;20221;-74
2023/06/03 07:49:04;;;;;;;7.85;5.38;;;17.60;99.90;;;;;;5076069;28;20243;-74
2023/06/03 07:51:34;;;;;;;9.93;5.68;;;17.80;99.90;;;;;;5075616;28;20197;-73
2023/06/03 07:54:00;;;;;;;8.18;5.72;;;18.00;99.90;;;;;;5075564;28;20247;-73
2023/06/03 07:56:29;;;;;;;8.52;6.10;;;18.10;99.90;;;;;;5075730;28;20239;-73
2023/06/03 07:58:57;;;;;;;8.75;5.88;;;18.40;99.90;;;;;;5075401;28;20684;-73
2023/06/03 08:01:25;;;;;;;9.05;5.72;;;18.50;99.90;;;;;;5075675;28;20205;-73
2023/06/03 08:03:52;;;;;;;10.63;6.00;;;18.70;99.90;;;;;;5075354;28;20296;-73
2023/06/03 08:06:21;;;;;;;8.25;5.88;;;18.80;99.50;;;;;;5075407;28;20224;-75
2023/06/03 08:08:49;;;;;;;8.95;5.72;;;19.10;99.40;;;;;;5075712;28;20235;-75
2023/06/03 08:11:15;;;;;;;9.40;5.72;;;19.20;98.60;;;;;;5075394;28;20355;-75
2023/06/03 08:13:43;;;;;;;7.82;5.97;;;19.30;97.80;;;;;;5075369;28;20234;-74
2023/06/03 08:16:14;;;;;;;7.53;6.00;;;19.50;97.70;;;;;;5075358;28;20205;-75
2023/06/03 08:18:43;;;;;;;8.07;5.30;;;19.50;96.40;;;;;;5075437;28;20200;-75
2023/06/03 08:21:11;;;;;;;8.45;6.07;;;19.60;96.20;;;;;;5075382;28;20606;-75
2023/06/03 08:23:37;;;;;;;8.23;6.07;;;19.70;95.60;;;;;;5075042;28;20653;-74
2023/06/03 08:26:08;;;;;;;8.93;5.70;;;19.90;95.00;;;;;;5074999;28;20221;-75
2023/06/03 08:28:34;;;;;;;7.97;6.13;;;20.20;94.40;;;;;;5075104;28;20250;-75
2023/06/03 08:31:01;;;;;;;7.30;6.35;;;20.30;93.70;;;;;;5075276;28;20197;-75
2023/06/03 08:33:27;;;;;;;9.00;5.47;;;20.40;93.00;;;;;;5074971;28;20220;-74
2023/06/03 08:35:54;;;;;;;7.47;5.60;;;20.40;93.00;;;;;;5075025;28;20197;-74
2023/06/03 08:38:21;;;;;;;7.13;5.70;;;20.70;92.40;;;;;;5074875;28;20192;-74
2023/06/03 08:40:49;;;;;;;8.80;5.70;;;20.80;91.30;;;;;;5074659;28;20270;-74
2023/06/03 08:43:17;;;;;;;8.82;5.57;;;21.00;90.20;;;;;;5075060;28;20201;-74
2023/06/03 08:45:54;;;;;;;8.35;5.93;;;20.90;90.10;;;;;;5074903;28;20197;-76
2023/06/03 08:48:32;;;;;;;8.32;5.63;;;21.20;90.10;;;;;;5074416;28;20198;-76
2023/06/03 08:51:04;;;;;;;10.80;6.13;;;21.30;88.20;;;;;;5074586;28;20201;-76
2023/06/03 08:53:41;;;;;;;6.82;5.50;;;21.50;85.90;;;;;;5074827;28;20316;-76
2023/06/03 08:56:11;;;;;;;11.48;6.32;;;21.60;85.80;;;;;;5074744;28;20196;-76
2023/06/03 08:58:45;;;;;;;6.72;5.65;;;21.70;84.00;;;;;;5074682;28;20205;-76
2023/06/03 09:01:12;;;;;;;8.32;5.70;;;21.70;82.40;;;;;;5074573;28;20192;-76
2023/06/03 09:03:41;;;;;;;8.45;5.45;;;21.60;82.10;;;;;;5074451;28;20200;-76
2023/06/03 09:06:08;;;;;;;8.35;5.35;;;22.10;82.00;;;;;;5077232;28;20270;-75
2023/06/03 09:08:36;;;;;;;7.78;5.70;;;22.40;81.20;;;;;;5074427;28;20239;-78
2023/06/03 09:11:05;;;;;;;7.70;5.78;;;22.60;78.70;;;;;;5074282;28;20238;-77
2023/06/03 09:13:33;;;;;;;8.32;5.95;;;23.00;77.00;;;;;;5074563;28;20208;-77
2023/06/03 09:16:04;;;;;;;7.93;6.28;;;23.10;76.20;;;;;;5074133;28;20250;-77
2023/06/03 09:18:31;;;;;;;7.95;5.60;;;23.20;74.20;;;;;;5074451;28;20205;-77
2023/06/03 09:20:58;;;;;;;10.75;5.80;;;23.40;72.30;;;;;;5074164;28;20340;-76
2023/06/03 09:23:26;;;;;;;7.60;5.82;;;23.50;71.70;;;;;;5073873;28;20197;-77
2023/06/03 09:25:53;;;;;;;9.07;5.47;;;23.70;70.10;;;;;;5073968;28;20603;-75
2023/06/03 09:28:21;;;;;;;9.68;5.82;;;23.80;69.70;;;;;;5073805;28;20197;-78
2023/06/03 09:30:47;;;;;;;9.45;5.43;;;24.00;67.60;;;;;;5073857;28;20242;-74
2023/06/03 09:33:16;;;;;;;6.63;5.40;;;24.10;65.50;;;;;;5074065;28;20205;-74
2023/06/03 09:35:43;;;;;;;9.43;5.63;;;24.20;64.50;;;;;;5073715;28;20649;-74
2023/06/03 09:38:09;;;;;;;8.05;5.88;;;24.10;63.20;;;;;;5073863;28;20231;-74
2023/06/03 09:40:37;;;;;;;10.50;5.90;;;24.30;63.40;;;;;;5073975;28;20197;-74
2023/06/03 09:43:11;;;;;;;6.88;5.55;;;24.70;63.00;;;;;;5073702;28;20589;-74
2023/06/03 09:45:37;;;;;;;11.32;5.68;;;25.20;60.40;;;;;;5073525;28;20675;-74
2023/06/03 09:48:04;;;;;;;7.90;5.43;;;24.90;58.90;;;;;;5073614;28;20279;-74
2023/06/03 09:50:32;;;;;;;10.35;5.78;;;24.20;58.90;;;;;;5073413;28;20340;-74
2023/06/03 09:52:59;;;;;;;10.63;5.50;;;24.80;59.20;;;;;;5073149;28;20680;-74
2023/06/03 09:55:32;;;;;;;8.27;5.20;;;24.50;57.90;;;;;;5073332;28;20229;-74
2023/06/03 09:58:03;;;;;;;6.95;5.32;;;24.70;57.30;;;;;;5073320;28;20561;-73
2023/06/03 10:00:32;;;;;;;8.25;5.40;;;25.30;55.50;;;;;;5072876;28;20608;-75
2023/06/03 10:03:09;;;;;;;7.95;5.43;;;26.10;54.60;;;;;;5073207;28;20192;-74
2023/06/03 10:05:37;;;;;;;9.35;5.82;;;26.30;53.20;;;;;;5073317;28;20611;-74
2023/06/03 10:08:04;;;;;;;7.25;5.20;;;26.50;51.50;;;;;;5072938;28;20266;-74
2023/06/03 10:10:33;;;;;;;6.78;5.35;;;27.00;49.20;;;;;;5073193;28;20192;-73
2023/06/03 10:13:17;;;;;;;7.13;5.10;;;27.10;47.40;;;;;;5073137;28;20200;-73
2023/06/03 10:15:43;;;;;;;8.90;5.40;;;27.50;47.60;;;;;;5072953;28;20193;-75
2023/06/03 10:18:10;;;;;;;6.78;5.25;;;28.20;45.60;;;;;;5072737;28;20737;-75
2023/06/03 10:20:41;;;;;;;8.73;5.45;;;28.40;44.50;;;;;;5072545;28;20580;-73
2023/06/03 10:23:09;;;;;;;6.88;5.25;;;28.00;43.30;;;;;;5072933;28;20205;-74
2023/06/03 10:25:41;;;;;;;6.85;5.15;;;27.80;44.90;;;;;;5072829;28;20250;-74
2023/06/03 10:28:08;;;;;;;5.63;4.88;;;29.00;42.90;;;;;;5072691;28;20251;-73
2023/06/03 10:30:36;;;;;;;8.00;4.78;;;29.70;41.30;;;;;;5072711;28;20197;-74
2023/06/03 10:33:04;;;;;;;7.90;5.38;;;30.00;39.60;;;;;;5072732;28;20200;-75
2023/06/03 10:35:32;;;;;;;6.13;5.50;;;30.60;37.60;;;;;;5072646;28;20222;-75
2023/06/03 10:38:02;;;;;;;9.73;4.95;;;30.30;36.20;;;;;;5072694;28;20306;-75
2023/06/03 10:40:29;;;;;;;7.03;4.55;;;30.20;36.20;;;;;;5072540;28;20242;-74
2023/06/03 10:42:56;;;;;;;6.65;4.68;;;31.30;34.50;;;;;;5072494;28;20220;-74
2023/06/03 10:45:24;;;;;;;7.05;4.90;;;32.00;32.70;;;;;;5072568;28;20192;-74
2023/06/03 10:47:57;;;;;;;5.20;4.70;;;31.40;32.00;;;;;;5072483;28;20223;-74
2023/06/03 10:50:33;;;;;;;6.50;4.70;;;31.90;31.20;;;;;;5072607;28;20249;-73
2023/06/03 10:53:14;;;;;;;6.03;4.55;;;31.30;30.70;;;;;;5072410;28;20200;-74
2023/06/03 10:55:55;;;;;;;6.57;4.80;;;31.90;30.50;;;;;;5072505;28;20197;-74
2023/06/03 10:58:24;;;;;;;7.13;5.45;;;31.70;29.40;;;;;;5072406;28;20342;-74
2023/06/03 11:00:56;;;;;;;7.28;5.22;;;30.60;29.80;;;;;;5072590;28;20228;-73
2023/06/03 11:03:24;;;;;;;8.15;5.38;;;32.00;29.60;;;;;;5072380;28;20207;-74
2023/06/03 11:05:51;;;;;;;6.03;4.95;;;32.40;28.30;;;;;;5072392;28;20197;-74
2023/06/03 11:08:57;;;;;;;6.25;5.35;;;33.20;27.70;;;;;;5072050;28;20691;-74
2023/06/03 11:11:58;;;;;;;7.32;4.60;;;34.10;26.40;;;;;;5075222;28;20203;-74
2023/06/03 11:14:51;;;;;;;5.93;4.70;;;34.00;25.80;;;;;;5076439;28;20253;-74
2023/06/03 11:17:18;;;;;;;6.63;4.78;;;34.70;25.10;;;;;;5076337;28;20195;-74
2023/06/03 11:19:50;;;;;;;9.13;5.13;;;34.80;24.50;;;;;;5076332;28;20196;-74
2023/06/03 11:22:39;;;;;;;6.88;4.68;;;34.40;24.00;;;;;;5076416;28;20238;-74
2023/06/03 11:25:06;;;;;;;7.95;5.00;;;33.60;24.00;;;;;;5076150;28;20245;-74
2023/06/03 11:27:35;;;;;;;10.00;5.25;;;34.10;24.10;;;;;;5076213;28;20633;-74
2023/06/03 11:30:04;;;;;;;6.88;4.72;;;34.80;23.90;;;;;;5075802;28;20683;-74
2023/06/03 11:32:32;;;;;;;6.35;5.00;;;35.10;22.60;;;;;;5075931;28;20192;-74
2023/06/03 11:35:27;;;;;;;5.60;4.90;;;35.00;21.60;;;;;;5075929;28;20196;-74
2023/06/03 11:37:54;;;;;;;5.53;5.03;;;34.70;22.00;;;;;;5075901;28;20200;-74
2023/06/03 11:40:22;;;;;;;8.07;5.00;;;35.20;21.40;;;;;;5075578;28;20232;-74
2023/06/03 11:43:07;;;;;;;5.68;5.10;;;35.40;21.30;;;;;;5075442;28;20230;-75
2023/06/03 11:45:36;;;;;;;6.68;4.85;;;36.30;20.60;;;;;;5075574;28;20228;-75
2023/06/03 11:48:05;;;;;;;6.97;5.30;;;36.60;20.10;;;;;;5075410;28;20612;-75
2023/06/03 11:50:34;;;;;;;11.63;4.90;;;35.60;19.70;;;;;;5075697;28;20595;-74
2023/06/03 11:53:01;;;;;;;6.97;4.70;;;35.90;20.00;;;;;;5075450;28;20594;-75
2023/06/03 11:55:29;;;;;;;7.85;5.25;;;37.00;19.70;;;;;;5075621;28;20275;-76
2023/06/03 11:58:00;;;;;;;7.30;5.00;;;36.90;18.90;;;;;;5075500;28;20204;-75
2023/06/03 12:00:28;;;;;;;6.80;5.05;;;36.90;18.90;;;;;;5075432;28;20207;-75
2023/06/03 12:02:55;;;;;;;8.73;5.10;;;37.10;18.40;;;;;;5075413;28;20196;-75
2023/06/03 12:05:21;;;;;;;5.20;4.63;;;37.00;18.00;;;;;;5075466;28;20287;-75
2023/06/03 12:07:55;;;;;;;7.78;4.95;;;37.90;18.50;;;;;;5075308;28;20258;-75
2023/06/03 12:10:21;;;;;;;5.88;5.38;;;38.30;17.50;;;;;;5075255;28;20238;-75
2023/06/03 12:12:51;;;;;;;6.72;5.25;;;35.80;18.40;;;;;;5075198;28;20253;-75
2023/06/03 12:15:18;;;;;;;6.82;5.40;;;36.10;18.50;;;;;;5075059;28;20648;-75
2023/06/03 12:17:46;;;;;;;5.82;5.22;;;35.70;17.50;;;;;;5075219;28;20529;-75
2023/06/03 12:20:23;;;;;;;8.32;5.65;;;34.70;18.10;;;;;;5075059;28;20246;-75
2023/06/03 12:22:50;;;;;;;6.63;5.55;;;33.90;19.30;;;;;;5074389;28;20291;-74
2023/06/03 12:25:21;;;;;;;6.25;5.60;;;32.60;19.50;;;;;;5075028;28;20599;-74
2023/06/03 12:27:47;;;;;;;6.97;5.57;;;31.30;21.10;;;;;;5075011;28;20557;-74
2023/06/03 12:30:31;;;;;;;7.65;6.10;;;31.90;21.60;;;;;;5075206;28;20311;-74
2023/06/03 12:32:59;;;;;;;6.93;5.80;;;33.80;19.90;;;;;;5075054;28;20196;-75
2023/06/03 12:35:27;;;;;;;6.78;5.35;;;35.60;18.50;;;;;;5074836;28;20200;-75
2023/06/03 12:38:04;;;;;;;8.88;5.75;;;36.20;17.10;;;;;;5074902;28;20197;-75
2023/06/03 12:40:31;;;;;;;7.53;5.43;;;37.10;16.70;;;;;;5075084;28;21066;-75
2023/06/03 12:42:58;;;;;;;6.53;5.55;;;37.40;16.40;;;;;;5074646;28;20660;-76
2023/06/03 12:45:26;;;;;;;7.68;5.90;;;36.90;16.00;;;;;;5074765;28;20204;-74
2023/06/03 12:47:55;;;;;;;8.68;6.03;;;34.80;17.00;;;;;;5074597;28;20683;-75
2023/06/03 12:50:31;;;;;;;8.63;6.53;;;33.40;17.40;;;;;;5074597;28;20267;-74
2023/06/03 12:53:13;;;;;;;8.77;6.07;;;32.80;18.20;;;;;;5074262;28;20648;-74